TimeEST,TemperatureF,Dew PointF,Humidity,Sea Level PressureIn,VisibilityMPH,Wind Direction,Wind SpeedMPH,Gust SpeedMPH,PrecipitationIn,Events,Conditions,WindDirDegrees,DateUTC
12:15 AM,30.2,28.9,95,30.50,10.0,Calm,Calm,-,N/A,,Clear,0,2013-11-29 05:15:00
12:35 AM,28.9,28.2,97,30.50,10.0,Calm,Calm,-,N/A,,Clear,0,2013-11-29 05:35:00
12:55 AM,29.5,28.9,98,30.49,10.0,Calm,Calm,-,N/A,,Clear,0,2013-11-29 05:55:00
1:15 AM,29.1,28.2,96,30.49,10.0,Calm,Calm,-,N/A,,Clear,0,2013-11-29 06:15:00
1:35 AM,28.4,27.7,97,30.49,10.0,Calm,Calm,-,N/A,,Clear,0,2013-11-29 06:35:00
1:55 AM,28.9,28.4,98,30.48,10.0,Calm,Calm,-,N/A,,Clear,0,2013-11-29 06:55:00
2:15 AM,28.2,27.9,99,30.48,10.0,Calm,Calm,-,N/A,,Clear,0,2013-11-29 07:15:00
2:35 AM,28.2,27.9,99,30.49,10.0,Calm,Calm,-,N/A,,Clear,0,2013-11-29 07:35:00
2:55 AM,28.4,27.5,96,30.49,10.0,Calm,Calm,-,N/A,,Clear,0,2013-11-29 07:55:00
3:15 AM,28.2,27.3,96,30.49,10.0,Calm,Calm,-,N/A,,Clear,0,2013-11-29 08:15:00
3:35 AM,27.5,27.1,99,30.49,10.0,Calm,Calm,-,N/A,,Clear,0,2013-11-29 08:35:00
3:55 AM,27.5,27.1,99,30.49,10.0,Calm,Calm,-,N/A,,Clear,0,2013-11-29 08:55:00
4:15 AM,27.5,27.1,99,30.49,10.0,Calm,Calm,-,N/A,,Clear,0,2013-11-29 09:15:00
4:35 AM,27.1,26.4,97,30.49,10.0,Calm,Calm,-,N/A,,Clear,0,2013-11-29 09:35:00
4:55 AM,27.3,26.6,97,30.50,10.0,Calm,Calm,-,N/A,,Clear,0,2013-11-29 09:55:00
5:15 AM,26.6,26.2,99,30.50,10.0,Calm,Calm,-,N/A,,Clear,0,2013-11-29 10:15:00
5:35 AM,27.3,26.6,97,30.50,10.0,Calm,Calm,-,N/A,,Clear,0,2013-11-29 10:35:00
5:55 AM,27.5,26.8,97,30.51,10.0,Calm,Calm,-,N/A,,Clear,0,2013-11-29 10:55:00
6:15 AM,26.4,25.7,97,30.51,10.0,Calm,Calm,-,N/A,,Clear,0,2013-11-29 11:15:00
6:35 AM,26.8,26.4,99,30.51,10.0,Calm,Calm,-,N/A,,Clear,0,2013-11-29 11:35:00
6:55 AM,27.0,26.4,98,30.52,10.0,Calm,Calm,-,N/A,,Clear,0,2013-11-29 11:55:00
7:15 AM,26.6,26.1,98,30.53,10.0,Calm,Calm,-,N/A,,Clear,0,2013-11-29 12:15:00
7:35 AM,27.1,26.6,98,30.54,10.0,Calm,Calm,-,N/A,,Clear,0,2013-11-29 12:35:00
7:55 AM,28.0,27.1,96,30.54,10.0,Calm,Calm,-,N/A,,Clear,0,2013-11-29 12:55:00
8:15 AM,29.3,27.5,93,30.55,10.0,Calm,Calm,-,N/A,,Clear,0,2013-11-29 13:15:00
8:35 AM,31.1,27.7,87,30.56,10.0,Calm,Calm,-,N/A,,Clear,0,2013-11-29 13:35:00
8:55 AM,32.5,27.0,80,30.56,10.0,Calm,Calm,-,N/A,,Clear,0,2013-11-29 13:55:00
9:15 AM,34.3,27.1,75,30.56,10.0,Calm,Calm,-,N/A,,Clear,0,2013-11-29 14:15:00
9:35 AM,36.5,27.9,71,30.57,10.0,Calm,Calm,-,N/A,,Clear,0,2013-11-29 14:35:00
9:55 AM,39.2,29.1,67,30.57,10.0,Calm,Calm,-,N/A,,Clear,0,2013-11-29 14:55:00
10:15 AM,43.0,28.4,56,30.58,10.0,North,3.5,-,N/A,,Clear,360,2013-11-29 15:15:00
10:35 AM,46.0,25.0,44,30.58,10.0,North,6.9,-,N/A,,Clear,10,2013-11-29 15:35:00
10:55 AM,46.8,24.3,41,30.57,10.0,North,6.9,-,N/A,,Clear,10,2013-11-29 15:55:00
11:15 AM,48.0,22.5,37,30.57,10.0,NNE,6.9,-,N/A,,Clear,20,2013-11-29 16:15:00
11:35 AM,49.1,21.7,34,30.56,10.0,North,8.1,-,N/A,,Clear,360,2013-11-29 16:35:00
11:55 AM,50.0,21.6,33,30.56,10.0,NE,5.8,-,N/A,,Clear,40,2013-11-29 16:55:00
12:15 PM,50.5,20.5,31,30.55,10.0,NNE,8.1,-,N/A,,Clear,30,2013-11-29 17:15:00
12:35 PM,50.5,21.0,31,30.55,10.0,North,5.8,-,N/A,,Clear,10,2013-11-29 17:35:00
12:55 PM,51.6,22.8,32,30.54,10.0,NE,6.9,-,N/A,,Clear,40,2013-11-29 17:55:00
1:15 PM,52.3,22.1,31,30.53,10.0,NNE,4.6,-,N/A,,Clear,20,2013-11-29 18:15:00
1:35 PM,52.2,22.8,32,30.53,10.0,NE,3.5,-,N/A,,Clear,40,2013-11-29 18:35:00
1:55 PM,52.5,22.1,31,30.53,10.0,North,4.6,-,N/A,,Clear,360,2013-11-29 18:55:00
2:15 PM,53.4,23.4,31,30.52,10.0,Calm,Calm,-,N/A,,Clear,0,2013-11-29 19:15:00
2:35 PM,53.1,22.6,31,30.53,10.0,North,3.5,-,N/A,,Clear,10,2013-11-29 19:35:00
2:55 PM,53.4,22.5,30,30.52,10.0,NE,3.5,-,N/A,,Clear,40,2013-11-29 19:55:00
3:15 PM,53.2,23.2,31,30.53,10.0,NNE,5.8,-,N/A,,Clear,20,2013-11-29 20:15:00
3:35 PM,53.1,24.4,33,30.53,10.0,North,3.5,-,N/A,,Clear,360,2013-11-29 20:35:00
3:55 PM,52.7,24.4,33,30.54,10.0,ENE,5.8,-,N/A,,Clear,60,2013-11-29 20:55:00
4:15 PM,52.5,24.8,34,30.54,10.0,NE,5.8,-,N/A,,Clear,40,2013-11-29 21:15:00
4:35 PM,50.7,25.0,37,30.54,10.0,ENE,5.8,-,N/A,,Clear,60,2013-11-29 21:35:00
4:55 PM,48.6,25.9,41,30.55,10.0,NE,5.8,-,N/A,,Clear,40,2013-11-29 21:55:00
5:15 PM,47.3,26.1,44,30.56,10.0,NE,4.6,-,N/A,,Clear,40,2013-11-29 22:15:00
5:35 PM,46.2,25.7,45,30.56,10.0,NE,6.9,-,N/A,,Clear,40,2013-11-29 22:35:00
5:55 PM,45.1,25.9,47,30.56,10.0,NNE,5.8,-,N/A,,Clear,30,2013-11-29 22:55:00
6:15 PM,43.7,26.6,51,30.57,10.0,NE,8.1,-,N/A,,Clear,50,2013-11-29 23:15:00
6:35 PM,42.8,26.6,53,30.58,10.0,NE,8.1,-,N/A,,Clear,50,2013-11-29 23:35:00
6:55 PM,42.1,26.2,53,30.58,10.0,NE,5.8,-,N/A,,Clear,40,2013-11-29 23:55:00
7:15 PM,41.7,26.1,54,30.58,10.0,NE,6.9,-,N/A,,Clear,40,2013-11-30 00:15:00
7:35 PM,41.2,26.2,55,30.59,10.0,NE,6.9,-,N/A,,Clear,40,2013-11-30 00:35:00
7:55 PM,39.7,26.4,59,30.60,10.0,NE,4.6,-,N/A,,Clear,40,2013-11-30 00:55:00
8:15 PM,39.2,26.2,60,30.60,10.0,NE,6.9,-,N/A,,Clear,50,2013-11-30 01:15:00
8:35 PM,39.0,25.9,59,30.61,10.0,NE,6.9,-,N/A,,Clear,40,2013-11-30 01:35:00
8:55 PM,38.7,25.5,59,30.61,10.0,NNE,6.9,-,N/A,,Clear,30,2013-11-30 01:55:00
9:15 PM,38.8,25.2,58,30.62,10.0,NNE,6.9,-,N/A,,Clear,20,2013-11-30 02:15:00
9:35 PM,38.5,24.8,58,30.62,10.0,NNE,6.9,-,N/A,,Clear,30,2013-11-30 02:35:00
9:55 PM,38.1,25.0,59,30.62,10.0,NNE,5.8,-,N/A,,Clear,30,2013-11-30 02:55:00
10:15 PM,37.9,24.8,59,30.62,10.0,NE,6.9,-,N/A,,Clear,40,2013-11-30 03:15:00
10:35 PM,37.4,24.8,60,30.62,10.0,NE,6.9,-,N/A,,Clear,40,2013-11-30 03:35:00
10:55 PM,37.0,25.0,62,30.62,10.0,NE,6.9,-,N/A,,Clear,50,2013-11-30 03:55:00
11:15 PM,36.7,25.3,64,30.63,10.0,NNE,6.9,-,N/A,,Clear,30,2013-11-30 04:15:00
11:35 PM,36.5,25.7,65,30.63,10.0,NE,9.2,-,N/A,,Clear,50,2013-11-30 04:35:00
11:55 PM,36.5,25.7,65,30.63,10.0,NE,8.1,-,N/A,,Clear,40,2013-11-30 04:55:00